createdAt,value
2019-04-14T00:00:49.030Z,49.33
2019-04-14T00:03:34.800Z,45.95
2019-04-14T00:06:09.014Z,43.83
2019-04-14T00:08:42.060Z,39.50
2019-04-14T00:11:16.904Z,41.77
2019-04-14T00:13:50.233Z,40.20
2019-04-14T00:16:22.810Z,39.40
2019-04-14T00:18:55.520Z,43.15
2019-04-14T00:21:28.385Z,38.50
2019-04-14T00:24:01.026Z,38.75
2019-04-14T00:26:37.935Z,40.58
2019-04-14T00:29:10.944Z,39.77
2019-04-14T00:31:43.576Z,41.83
2019-04-14T00:34:20.316Z,42.87
2019-04-14T00:37:07.757Z,45.15
2019-04-14T00:39:42.195Z,41.77
2019-04-14T00:42:14.807Z,41.00
2019-04-14T00:47:54.783Z,38.80
2019-04-14T00:50:25.371Z,39.50
2019-04-14T00:52:58.866Z,39.60
2019-04-14T00:55:31.508Z,37.20
2019-04-14T00:58:14.871Z,36.40
2019-04-14T01:02:10.183Z,38.87
2019-04-14T01:07:18.030Z,38.07
2019-04-14T01:09:51.039Z,41.83
2019-04-14T01:12:25.613Z,36.70
2019-04-14T01:14:58.322Z,38.20
2019-04-14T01:17:30.900Z,41.67
2019-04-14T01:20:03.867Z,38.35
2019-04-14T01:22:36.309Z,37.66
2019-04-14T01:25:12.855Z,38.17
2019-04-14T01:27:45.468Z,36.45
2019-04-14T01:30:18.419Z,33.15
2019-04-14T01:32:52.210Z,38.05
2019-04-14T01:35:29.187Z,34.75
2019-04-14T01:38:01.794Z,38.08
2019-04-14T01:40:34.493Z,35.15
2019-04-14T01:43:08.007Z,38.45
2019-04-14T01:45:43.394Z,36.27
2019-04-14T01:48:17.060Z,40.80
2019-04-14T01:51:07.728Z,42.23
2019-04-14T01:53:57.596Z,40.77
2019-04-14T01:56:38.440Z,41.83
2019-04-14T01:59:12.999Z,41.83
2019-04-14T02:01:47.822Z,41.33
2019-04-14T02:04:22.423Z,40.35
2019-04-14T02:06:55.231Z,42.10
2019-04-14T02:09:27.686Z,42.75
2019-04-14T02:12:04.581Z,41.95
2019-04-14T02:14:38.604Z,44.13
2019-04-14T02:17:11.341Z,46.57
2019-04-14T02:19:46.544Z,47.65
2019-04-14T02:22:20.187Z,46.77
2019-04-14T02:24:52.955Z,48.78
2019-04-14T02:27:27.511Z,46.58
2019-04-14T02:30:00.323Z,51.97
2019-04-14T02:33:00.314Z,47.10
2019-04-14T02:35:37.296Z,52.03
2019-04-14T02:38:23.321Z,49.83
2019-04-14T02:41:15.094Z,48.42
2019-04-14T02:43:27.578Z,49.46
2019-04-14T02:45:57.910Z,47.45
2019-04-14T02:51:10.067Z,46.80
2019-04-14T02:53:44.199Z,46.43
2019-04-14T02:56:15.858Z,43.37
2019-04-14T02:59:07.541Z,40.40
2019-04-14T03:03:50.774Z,40.60
2019-04-14T03:06:25.732Z,45.63
2019-04-14T03:09:15.376Z,41.50
2019-04-14T03:11:44.004Z,40.55
2019-04-14T03:14:15.714Z,40.90
2019-04-14T03:17:07.375Z,40.20
2019-04-14T03:19:55.036Z,43.65
2019-04-14T03:22:50.252Z,42.80
2019-04-14T03:25:08.157Z,38.93
2019-04-14T03:33:32.211Z,43.97
2019-04-14T03:36:05.950Z,46.93
2019-04-14T03:38:13.224Z,46.27
2019-04-14T03:43:25.025Z,46.40
2019-04-14T03:51:00.361Z,47.88
2019-04-14T03:56:02.346Z,48.47
2019-04-14T03:58:31.498Z,49.27
2019-04-14T04:01:04.095Z,48.80
2019-04-14T04:03:36.847Z,56.33
2019-04-14T04:06:09.683Z,58.33
2019-04-14T04:08:42.445Z,55.23
2019-04-14T04:11:15.108Z,58.50
2019-04-14T04:13:47.790Z,56.06
2019-04-14T04:16:22.346Z,51.37
2019-04-14T04:19:03.707Z,54.63
2019-04-14T04:21:31.322Z,57.58
2019-04-14T04:24:19.187Z,62.55
2019-04-14T04:26:53.906Z,55.17
2019-04-14T04:29:35.501Z,58.83
2019-04-14T04:32:25.409Z,59.50
2019-04-14T04:34:59.900Z,59.30
2019-04-14T04:37:34.577Z,63.33
2019-04-14T04:40:11.497Z,58.52
2019-04-14T04:42:44.016Z,57.33
2019-04-14T04:45:17.099Z,58.33
2019-04-14T04:47:49.402Z,59.53
2019-04-14T04:50:21.808Z,58.27
2019-04-14T04:52:56.189Z,59.50
2019-04-14T04:55:28.858Z,56.77
2019-04-14T04:58:01.457Z,58.52
2019-04-14T05:00:35.033Z,59.93
2019-04-14T05:03:07.935Z,61.77
2019-04-14T05:06:54.679Z,61.27
2019-04-14T05:09:38.862Z,55.20
2019-04-14T05:12:28.904Z,55.10
2019-04-14T05:17:35.277Z,59.30
2019-04-14T05:20:09.540Z,55.85
2019-04-14T05:22:42.312Z,55.40
2019-04-14T05:25:14.741Z,55.40
2019-04-14T05:27:47.390Z,59.25
2019-04-14T05:30:20.282Z,56.50
2019-04-14T05:32:52.707Z,57.00
2019-04-14T05:35:25.286Z,53.62
2019-04-14T05:37:57.610Z,57.48
2019-04-14T05:40:32.135Z,57.80
2019-04-14T05:43:04.791Z,55.90
2019-04-14T05:45:37.382Z,58.47
2019-04-14T05:48:09.972Z,56.60
2019-04-14T05:50:42.350Z,59.53
2019-04-14T05:53:15.397Z,56.73
2019-04-14T05:55:50.427Z,56.60
2019-04-14T05:58:23.241Z,57.03
2019-04-14T06:00:55.849Z,54.73
2019-04-14T06:03:28.378Z,59.33
2019-04-14T06:06:01.753Z,57.65
2019-04-14T06:08:34.322Z,58.17
2019-04-14T06:11:06.737Z,50.57
2019-04-14T06:13:39.287Z,56.40
2019-04-14T06:16:12.752Z,50.60
2019-04-14T06:18:45.288Z,52.53
2019-04-14T06:21:38.546Z,49.38
2019-04-14T06:24:11.042Z,53.55
2019-04-14T06:26:43.432Z,48.70
2019-04-14T06:29:15.835Z,52.03
2019-04-14T06:31:59.055Z,47.65
2019-04-14T06:34:49.438Z,51.02
2019-04-14T06:37:23.381Z,49.33
2019-04-14T06:40:00.301Z,49.33
2019-04-14T06:42:32.899Z,45.70
2019-04-14T06:45:06.293Z,47.00
2019-04-14T06:47:38.266Z,47.00
2019-04-14T06:50:10.997Z,49.03
2019-04-14T06:52:43.484Z,48.13
2019-04-14T06:55:15.845Z,47.33
2019-04-14T06:57:48.313Z,48.75
2019-04-14T07:00:20.999Z,48.08
2019-04-14T07:02:53.458Z,47.93
2019-04-14T07:05:25.864Z,47.47
2019-04-14T07:07:58.366Z,47.35
2019-04-14T07:13:02.297Z,42.98
2019-04-14T07:15:34.653Z,43.30
2019-04-14T07:18:07.144Z,47.60
2019-04-14T07:20:39.505Z,46.02
2019-04-14T07:23:11.876Z,49.58
2019-04-14T07:25:44.317Z,47.53
2019-04-14T07:28:16.753Z,41.77
2019-04-14T07:35:42.310Z,46.47
2019-04-14T07:38:16.452Z,41.48
2019-04-14T07:41:06.968Z,40.83
2019-04-14T07:43:41.305Z,41.33
2019-04-14T07:46:21.429Z,46.50
2019-04-14T07:48:55.445Z,39.80
2019-04-14T07:51:29.572Z,43.10
2019-04-14T07:54:10.410Z,43.98
2019-04-14T07:56:42.599Z,45.90
2019-04-14T07:59:16.721Z,42.45
2019-04-14T08:01:57.050Z,40.10
2019-04-14T08:04:33.897Z,42.38
2019-04-14T08:07:06.579Z,38.63
2019-04-14T08:09:39.299Z,41.73
2019-04-14T08:12:11.794Z,42.40
2019-04-14T08:14:44.333Z,44.00
2019-04-14T08:17:16.788Z,41.45
2019-04-14T08:19:49.357Z,39.53
2019-04-14T08:22:23.412Z,41.42
2019-04-14T08:24:56.293Z,40.02
2019-04-14T08:27:28.623Z,46.00
2019-04-14T08:30:01.453Z,38.08
2019-04-14T08:32:34.142Z,40.60
2019-04-14T08:35:08.453Z,42.40
2019-04-14T08:37:42.469Z,40.40
2019-04-14T08:40:15.293Z,39.98
2019-04-14T08:43:05.449Z,36.60
2019-04-14T08:45:42.306Z,37.67
2019-04-14T08:48:22.879Z,36.25
2019-04-14T08:51:09.298Z,89.03
2019-04-14T08:53:52.670Z,37.40
2019-04-14T08:56:36.288Z,38.83
2019-04-14T08:59:13.318Z,39.05
2019-04-14T09:01:57.555Z,34.78
2019-04-14T09:04:37.750Z,36.28
2019-04-14T09:07:27.755Z,41.28
2019-04-14T09:10:08.858Z,38.45
2019-04-14T09:12:43.050Z,37.67
2019-04-14T09:15:16.134Z,38.88
2019-04-14T09:17:48.702Z,42.60
2019-04-14T09:20:21.839Z,35.90
2019-04-14T09:22:54.334Z,37.08
2019-04-14T09:25:26.789Z,37.16
2019-04-14T09:30:31.299Z,35.05
2019-04-14T09:33:06.709Z,34.50
2019-04-14T09:35:39.312Z,35.25
2019-04-14T09:40:43.639Z,36.30
2019-04-14T09:43:18.387Z,40.67
2019-04-14T09:45:52.516Z,32.60
2019-04-14T09:48:24.932Z,35.25
2019-04-14T09:51:04.693Z,33.55
2019-04-14T09:53:31.702Z,37.67
2019-04-14T09:56:05.692Z,37.70
2019-04-14T09:58:39.890Z,36.28
2019-04-14T10:01:12.655Z,35.38
2019-04-14T10:03:45.368Z,33.88
2019-04-14T10:06:18.231Z,31.42
2019-04-14T10:08:52.677Z,33.02
2019-04-14T10:11:25.690Z,33.38
2019-04-14T10:14:05.673Z,34.53
2019-04-14T10:16:37.728Z,37.48
2019-04-14T10:19:10.359Z,34.23
2019-04-14T10:21:44.307Z,33.05
2019-04-14T10:24:17.190Z,32.88
2019-04-14T10:26:51.794Z,33.63
2019-04-14T10:29:24.612Z,29.45
2019-04-14T10:31:57.285Z,32.34
2019-04-14T10:34:29.846Z,37.20
2019-04-14T10:37:02.762Z,31.35
2019-04-14T10:39:35.337Z,31.17
2019-04-14T10:42:11.122Z,31.62
2019-04-14T10:44:43.625Z,32.35
2019-04-14T10:47:16.347Z,33.98
2019-04-14T10:49:49.292Z,30.12
2019-04-14T10:52:22.923Z,29.63
2019-04-14T10:54:55.419Z,28.83
2019-04-14T10:57:28.431Z,29.63
2019-04-14T11:00:00.832Z,30.30
2019-04-14T11:02:34.842Z,30.95
2019-04-14T11:05:09.380Z,30.23
2019-04-14T11:07:42.655Z,27.42
2019-04-14T11:10:15.438Z,28.85
2019-04-14T11:12:48.062Z,28.40
2019-04-14T11:15:22.478Z,30.30
2019-04-14T11:17:55.294Z,26.82
2019-04-14T11:20:28.172Z,26.90
2019-04-14T11:23:03.375Z,28.67
2019-04-14T11:25:35.405Z,28.90
2019-04-14T11:28:08.384Z,31.20
2019-04-14T11:30:43.054Z,30.55
2019-04-14T11:33:16.631Z,28.38
2019-04-14T11:38:30.835Z,31.00
2019-04-14T11:41:05.293Z,34.87
2019-04-14T11:46:10.379Z,28.23
2019-04-14T11:48:43.468Z,32.03
2019-04-14T11:51:16.440Z,29.27
2019-04-14T11:53:48.919Z,28.10
2019-04-14T11:59:02.922Z,29.77
2019-04-14T12:01:37.302Z,34.05
2019-04-14T12:04:11.623Z,30.25
2019-04-14T12:06:59.638Z,28.95
2019-04-14T12:09:39.895Z,28.25
2019-04-14T12:12:12.613Z,26.65
2019-04-14T12:14:45.319Z,24.43
2019-04-14T12:17:18.022Z,24.35
2019-04-14T12:19:50.538Z,27.45
2019-04-14T12:22:23.523Z,24.65
2019-04-14T12:24:56.289Z,24.90
2019-04-14T12:30:16.300Z,26.15
2019-04-14T12:32:48.784Z,26.73
2019-04-14T12:35:23.226Z,26.45
2019-04-14T12:41:02.968Z,27.00
2019-04-14T12:43:44.292Z,27.20
2019-04-14T12:46:26.291Z,26.48
2019-04-14T12:49:12.638Z,27.77
2019-04-14T12:51:53.775Z,27.60
2019-04-14T12:54:27.575Z,27.98
2019-04-14T12:57:01.633Z,25.97
2019-04-14T12:59:36.340Z,28.93
2019-04-14T13:02:16.838Z,30.65
2019-04-14T13:04:49.609Z,28.55
2019-04-14T13:07:23.696Z,27.35
2019-04-14T13:09:56.289Z,29.25
2019-04-14T13:12:34.772Z,26.33
2019-04-14T13:15:20.699Z,28.00
2019-04-14T13:17:58.452Z,25.60
2019-04-14T13:20:33.189Z,25.55
2019-04-14T13:23:10.688Z,25.08
2019-04-14T13:25:43.398Z,23.20
2019-04-14T13:28:16.289Z,25.88
2019-04-14T13:30:54.662Z,21.40
2019-04-14T13:33:28.463Z,22.25
2019-04-14T13:36:01.971Z,21.77
2019-04-14T13:38:34.874Z,20.33
2019-04-14T13:41:07.553Z,19.20
2019-04-14T13:43:41.665Z,19.10
2019-04-14T13:46:20.467Z,20.12
2019-04-14T13:48:54.648Z,21.20
2019-04-14T13:51:28.696Z,19.50
2019-04-14T13:56:33.314Z,15.30
2019-04-14T14:04:11.621Z,14.30
2019-04-14T14:06:44.293Z,15.70
2019-04-14T14:09:21.710Z,15.88
2019-04-14T14:12:07.918Z,18.07
2019-04-14T14:14:51.294Z,15.70
2019-04-14T14:17:44.310Z,18.25
2019-04-14T14:20:24.501Z,19.35
2019-04-14T14:23:04.459Z,17.80
2019-04-14T14:25:48.766Z,17.92
2019-04-14T14:28:21.298Z,16.23
2019-04-14T14:30:54.315Z,22.22
2019-04-14T14:33:28.496Z,19.02
2019-04-14T14:36:01.047Z,20.80
2019-04-14T14:38:33.612Z,20.60
2019-04-14T14:41:07.785Z,19.07
2019-04-14T14:43:40.310Z,19.92
2019-04-14T14:46:22.682Z,19.77
2019-04-14T14:49:04.317Z,19.60
2019-04-14T14:51:55.423Z,18.60
2019-04-14T14:54:30.629Z,20.80
2019-04-14T14:57:03.299Z,20.65
2019-04-14T14:59:39.734Z,17.80
2019-04-14T15:02:15.301Z,16.07
2019-04-14T15:04:49.391Z,18.52
2019-04-14T15:07:28.435Z,14.50
2019-04-14T15:10:00.873Z,16.82
2019-04-14T15:12:36.317Z,17.50
2019-04-14T15:15:12.363Z,13.70
2019-04-14T15:17:46.574Z,15.63
2019-04-14T15:20:19.302Z,18.00
2019-04-14T15:25:35.815Z,21.23
2019-04-14T15:28:08.614Z,17.90
2019-04-14T15:30:41.553Z,17.37
2019-04-14T15:33:15.923Z,18.02
2019-04-14T15:35:56.743Z,17.30
2019-04-14T15:38:31.283Z,19.64
2019-04-14T15:41:04.742Z,19.92
2019-04-14T15:43:40.310Z,21.43
2019-04-14T15:46:14.819Z,18.50
2019-04-14T15:51:44.238Z,16.80
2019-04-14T15:54:25.264Z,15.70
2019-04-14T15:59:36.311Z,16.82
2019-04-14T16:02:15.787Z,16.42
2019-04-14T16:04:53.047Z,15.72
2019-04-14T16:07:25.390Z,15.10
2019-04-14T16:10:07.162Z,16.25
2019-04-14T16:12:44.288Z,12.90
2019-04-14T16:18:14.053Z,14.87
2019-04-14T16:20:51.054Z,16.65
2019-04-14T16:23:25.393Z,13.64
2019-04-14T16:26:08.801Z,15.08
2019-04-14T16:28:43.293Z,11.73
2019-04-14T16:31:33.333Z,12.88
2019-04-14T16:34:20.381Z,13.78
2019-04-14T16:36:53.770Z,14.07
2019-04-14T16:39:26.356Z,15.28
2019-04-14T16:41:58.974Z,14.13
2019-04-14T16:44:31.563Z,14.73
2019-04-14T16:47:05.310Z,14.13
2019-04-14T16:49:37.624Z,13.68
2019-04-14T16:52:10.170Z,13.98
2019-04-14T16:55:00.359Z,18.20
2019-04-14T16:57:49.320Z,15.67
2019-04-14T17:00:23.668Z,15.13
2019-04-14T17:02:56.293Z,17.80
2019-04-14T17:05:29.018Z,15.72
2019-04-14T17:08:01.491Z,19.44
2019-04-14T17:10:34.553Z,15.40
2019-04-14T17:13:08.549Z,17.02
2019-04-14T17:15:58.683Z,18.70
2019-04-14T17:18:49.810Z,20.80
2019-04-14T17:21:29.794Z,16.35
2019-04-14T17:24:16.350Z,17.80
2019-04-14T17:26:48.186Z,21.60
2019-04-14T17:29:25.303Z,18.37
2019-04-14T17:32:13.466Z,19.10
2019-04-14T17:37:41.764Z,17.20
2019-04-14T17:40:22.456Z,17.55
2019-04-14T17:43:09.818Z,19.98
2019-04-14T17:45:50.698Z,19.05
2019-04-14T17:48:31.887Z,16.97
2019-04-14T17:51:13.290Z,20.37
2019-04-14T17:53:50.291Z,18.90
2019-04-14T17:56:24.721Z,17.60
2019-04-14T17:58:59.886Z,17.27
2019-04-14T18:01:50.414Z,20.33
2019-04-14T18:04:41.303Z,21.52
2019-04-14T18:07:24.674Z,17.32
2019-04-14T18:09:58.865Z,19.00
2019-04-14T18:12:43.174Z,17.70
2019-04-14T18:15:20.031Z,18.15
2019-04-14T18:17:57.853Z,18.90
2019-04-14T18:20:34.299Z,22.24
2019-04-14T18:23:07.515Z,21.50
2019-04-14T18:25:43.079Z,20.90
2019-04-14T18:31:06.324Z,21.13
2019-04-14T18:33:48.371Z,20.57
2019-04-14T18:36:38.241Z,21.35
2019-04-14T18:39:34.942Z,20.52
2019-04-14T18:42:09.314Z,26.13
2019-04-14T18:47:49.879Z,22.47
2019-04-14T18:50:46.362Z,21.45
2019-04-14T18:53:23.047Z,21.03
2019-04-14T18:56:10.597Z,24.84
2019-04-14T18:58:44.804Z,22.83
2019-04-14T19:01:18.576Z,22.65
2019-04-14T19:07:17.319Z,23.98
2019-04-14T19:09:51.035Z,22.98
2019-04-14T19:12:28.136Z,23.98
2019-04-14T19:15:02.398Z,23.94
2019-04-14T19:17:36.604Z,20.57
2019-04-14T19:20:11.111Z,22.48
2019-04-14T19:22:43.639Z,22.75
2019-04-14T19:25:16.387Z,25.60
2019-04-14T19:27:49.050Z,29.55
2019-04-14T19:30:22.307Z,26.23
2019-04-14T19:32:59.334Z,28.85
2019-04-14T19:35:32.041Z,27.77
2019-04-14T19:38:04.546Z,28.00
2019-04-14T19:40:37.329Z,27.32
2019-04-14T19:43:09.576Z,30.80
2019-04-14T19:45:41.761Z,30.50
2019-04-14T19:48:16.733Z,30.95
2019-04-14T19:50:49.535Z,31.65
2019-04-14T19:53:25.566Z,28.05
2019-04-14T19:55:58.506Z,29.50
2019-04-14T19:58:31.443Z,28.24
2019-04-14T20:01:07.062Z,27.47
2019-04-14T20:03:39.066Z,24.77
2019-04-14T20:06:11.761Z,27.70
2019-04-14T20:08:44.448Z,25.45
2019-04-14T20:11:17.005Z,26.75
2019-04-14T20:13:49.468Z,24.60
2019-04-14T20:16:39.468Z,24.15
2019-04-14T20:19:22.070Z,25.27
2019-04-14T20:21:59.494Z,26.77
2019-04-14T20:24:43.292Z,23.75
2019-04-14T20:27:17.564Z,26.35
2019-04-14T20:29:51.620Z,28.07
2019-04-14T20:35:04.893Z,26.53
2019-04-14T20:37:37.634Z,23.27
2019-04-14T20:40:11.323Z,28.10
2019-04-14T20:45:17.408Z,26.60
2019-04-14T20:50:23.346Z,25.77
2019-04-14T20:55:28.563Z,30.30
2019-04-14T20:58:01.319Z,25.23
2019-04-14T21:00:33.489Z,27.00
2019-04-14T21:03:55.384Z,26.70
2019-04-14T21:06:35.433Z,25.32
2019-04-14T21:09:27.282Z,26.80
2019-04-14T21:12:01.424Z,26.57
2019-04-14T21:14:47.905Z,22.48
2019-04-14T21:17:22.308Z,30.92
2019-04-14T21:20:03.675Z,27.93
2019-04-14T21:22:47.317Z,28.38
2019-04-14T21:25:25.336Z,24.50
2019-04-14T21:28:15.329Z,24.77
2019-04-14T21:30:52.319Z,26.52
2019-04-14T21:33:28.252Z,28.45
2019-04-14T21:36:02.543Z,25.27
2019-04-14T21:38:36.797Z,25.05
2019-04-14T21:41:11.299Z,26.35
2019-04-14T21:43:43.647Z,25.77
2019-04-14T21:46:18.270Z,23.35
2019-04-14T21:48:50.650Z,22.70
2019-04-14T21:51:24.676Z,25.35
2019-04-14T21:53:57.491Z,21.40
2019-04-14T21:56:31.561Z,23.53
2019-04-14T21:59:06.691Z,26.68
2019-04-14T22:07:20.984Z,21.62
2019-04-14T22:09:55.298Z,20.35
2019-04-14T22:14:53.303Z,18.47
2019-04-14T22:17:25.824Z,17.87
2019-04-14T22:19:58.304Z,17.07
2019-04-14T22:22:30.691Z,18.25
2019-04-14T22:25:03.053Z,20.75
2019-04-14T22:27:35.547Z,19.67
2019-04-14T22:30:13.298Z,20.50
2019-04-14T22:32:45.888Z,19.23
2019-04-14T22:35:18.420Z,20.50
2019-04-14T22:37:54.318Z,26.55
2019-04-14T22:40:28.419Z,23.07
2019-04-14T22:43:00.875Z,25.60
2019-04-14T22:45:33.349Z,24.45
2019-04-14T22:48:05.538Z,23.07
2019-04-14T22:50:37.518Z,20.33
2019-04-14T22:53:10.002Z,23.80
2019-04-14T22:55:42.511Z,21.80
2019-04-14T22:58:14.878Z,26.77
2019-04-14T23:00:57.851Z,24.50
2019-04-14T23:03:40.763Z,25.45
2019-04-14T23:06:13.046Z,26.35
2019-04-14T23:09:03.947Z,23.40
2019-04-14T23:11:58.447Z,26.12
2019-04-14T23:14:35.322Z,24.00
2019-04-14T23:17:19.817Z,24.57
2019-04-14T23:19:52.138Z,25.10
2019-04-14T23:22:29.386Z,22.60
2019-04-14T23:25:02.056Z,24.97
2019-04-14T23:27:36.294Z,22.80
2019-04-14T23:30:09.761Z,25.00
2019-04-14T23:32:42.298Z,27.93
2019-04-14T23:35:14.852Z,22.35
2019-04-14T23:37:47.305Z,24.75
2019-04-14T23:40:23.439Z,23.90
2019-04-14T23:42:57.525Z,24.07
2019-04-14T23:45:29.902Z,23.80
2019-04-14T23:48:02.410Z,23.12
2019-04-14T23:50:34.853Z,23.47
2019-04-14T23:53:07.359Z,24.20
2019-04-14T23:55:41.510Z,24.55
2019-04-14T23:58:14.039Z,26.05
